Little York, Illinois
Current Conditions -  °F | °C
As of 4:55 PM on Tuesday 21 Oct 2014 (Local Time) from KGBG Reporting Station
Clear Clear  
Wind Chill: 58°   Ceiling: Unl
Heat Index: 58°   Visibility: 10mi
Dew Point: 39°   Wind: 9mph
Humidity: 49%   Direction: 60°ENE
Pressure: 30.16"   Gusts: NA
Location:  41.01°N, 90.75°W
Report Text: KGBG 212155Z AUTO 06008KT 10SM CLR 15/04 A3016 RMK AO2 T01450038
Loading
Personal Weather Stations






























Interactive Weather Map
Tropical Storm Tracking
New forecast layout! Learn more

10-Day Weather Forecast

Advertisements
Track Severe Weather on mobile